createdAt,value
2019-05-23T00:00:19.184Z,8.30
2019-05-23T00:02:54.135Z,9.05
2019-05-23T00:05:29.726Z,9.60
2019-05-23T00:08:01.356Z,9.83
2019-05-23T00:10:33.056Z,9.55
2019-05-23T00:13:11.437Z,9.18
2019-05-23T00:15:41.589Z,10.72
2019-05-23T00:18:11.325Z,9.70
2019-05-23T00:20:40.520Z,9.98
2019-05-23T00:23:10.451Z,10.45
2019-05-23T00:25:40.002Z,9.85
2019-05-23T00:28:10.071Z,9.65
2019-05-23T00:30:49.439Z,9.93
2019-05-23T00:33:21.878Z,9.65
2019-05-23T00:35:50.943Z,9.60
2019-05-23T00:38:20.101Z,10.23
2019-05-23T00:40:53.141Z,10.20
2019-05-23T00:43:23.940Z,9.88
2019-05-23T00:48:24.314Z,10.03
2019-05-23T00:50:53.665Z,10.90
2019-05-23T00:53:23.053Z,9.98
2019-05-23T00:55:53.178Z,9.63
2019-05-23T00:58:23.325Z,9.43
2019-05-23T01:00:51.906Z,10.35
2019-05-23T01:03:21.790Z,10.43
2019-05-23T01:05:52.469Z,10.17
2019-05-23T01:08:21.665Z,9.48
2019-05-23T01:10:51.357Z,10.25
2019-05-23T01:13:22.167Z,10.25
2019-05-23T01:15:52.596Z,10.30
2019-05-23T01:18:22.812Z,10.08
2019-05-23T01:21:13.450Z,9.65
2019-05-23T01:23:46.425Z,9.65
2019-05-23T01:26:16.017Z,9.38
2019-05-23T01:28:46.072Z,10.58
2019-05-23T01:31:19.208Z,11.05
2019-05-23T01:33:49.728Z,10.58
2019-05-23T01:36:20.054Z,10.05
2019-05-23T01:38:49.535Z,9.85
2019-05-23T01:41:22.254Z,10.20
2019-05-23T01:43:52.654Z,10.78
2019-05-23T01:46:21.724Z,10.50
2019-05-23T01:48:50.818Z,15.90
2019-05-23T01:51:22.065Z,17.10
2019-05-23T01:53:51.362Z,20.27
2019-05-23T01:56:20.359Z,15.05
2019-05-23T01:58:48.975Z,15.80
2019-05-23T02:01:20.426Z,13.03
2019-05-23T02:03:49.132Z,12.55
2019-05-23T02:06:17.681Z,11.88
2019-05-23T02:08:46.194Z,11.80
2019-05-23T02:11:18.691Z,11.57
2019-05-23T02:13:47.899Z,12.28
2019-05-23T02:16:17.517Z,12.45
2019-05-23T02:18:48.764Z,12.85
2019-05-23T02:21:18.655Z,12.07
2019-05-23T02:23:47.958Z,12.87
2019-05-23T02:26:17.780Z,12.95
2019-05-23T02:28:47.089Z,12.82
2019-05-23T02:31:17.362Z,12.35
2019-05-23T02:33:46.280Z,13.35
2019-05-23T02:36:15.069Z,12.47
2019-05-23T02:39:06.817Z,12.45
2019-05-23T02:41:46.437Z,12.85
2019-05-23T02:44:24.024Z,12.30
2019-05-23T02:47:13.291Z,12.25
2019-05-23T02:49:44.046Z,13.03
2019-05-23T02:52:36.334Z,12.10
2019-05-23T02:55:14.551Z,11.38
2019-05-23T02:57:47.157Z,10.43
2019-05-23T03:01:05.443Z,11.28
2019-05-23T03:03:36.263Z,11.53
2019-05-23T03:06:10.012Z,11.88
2019-05-23T03:08:40.131Z,11.20
2019-05-23T03:11:35.067Z,11.22
2019-05-23T03:14:05.445Z,12.28
2019-05-23T03:16:37.783Z,11.55
2019-05-23T03:19:22.458Z,12.25
2019-05-23T03:21:58.001Z,11.75
2019-05-23T03:24:28.136Z,11.55
2019-05-23T03:27:14.627Z,11.68
2019-05-23T03:29:46.200Z,11.30
2019-05-23T03:32:37.345Z,11.00
2019-05-23T03:35:26.073Z,12.05
2019-05-23T03:37:56.538Z,13.05
2019-05-23T03:40:26.073Z,14.50
2019-05-23T03:42:57.833Z,12.50
2019-05-23T03:45:30.280Z,12.70
2019-05-23T03:48:00.222Z,13.55
2019-05-23T03:50:29.847Z,14.40
2019-05-23T03:52:58.990Z,12.63
2019-05-23T03:55:30.094Z,13.35
2019-05-23T03:58:00.175Z,13.30
2019-05-23T04:00:36.693Z,12.07
2019-05-23T04:03:06.929Z,13.50
2019-05-23T04:05:36.981Z,13.85
2019-05-23T04:08:06.626Z,12.93
2019-05-23T04:10:35.603Z,13.68
2019-05-23T04:13:05.585Z,11.65
2019-05-23T04:15:34.580Z,12.45
2019-05-23T04:18:03.507Z,13.98
2019-05-23T04:20:33.207Z,13.38
2019-05-23T04:23:02.551Z,13.38
2019-05-23T04:25:31.804Z,15.68
2019-05-23T04:28:01.548Z,14.85
2019-05-23T04:30:30.746Z,13.62
2019-05-23T04:32:59.548Z,16.25
2019-05-23T04:35:28.239Z,13.65
2019-05-23T04:37:56.530Z,13.85
2019-05-23T04:40:25.353Z,14.93
2019-05-23T04:42:54.239Z,15.75
2019-05-23T04:47:54.100Z,14.05
2019-05-23T04:50:23.641Z,13.48
2019-05-23T04:52:52.195Z,13.53
2019-05-23T04:55:22.170Z,15.40
2019-05-23T04:57:51.746Z,12.78
2019-05-23T05:00:23.178Z,13.80
2019-05-23T05:02:53.104Z,12.55
2019-05-23T05:05:22.292Z,14.67
2019-05-23T05:07:51.290Z,14.38
2019-05-23T05:10:23.018Z,12.70
2019-05-23T05:12:51.867Z,12.47
2019-05-23T05:15:23.490Z,14.60
2019-05-23T05:17:52.397Z,13.80
2019-05-23T05:20:21.009Z,14.10
2019-05-23T05:22:50.380Z,13.05
2019-05-23T05:25:19.314Z,13.00
2019-05-23T05:27:47.951Z,14.93
2019-05-23T05:30:18.389Z,14.27
2019-05-23T05:32:47.790Z,12.80
2019-05-23T05:35:16.800Z,11.63
2019-05-23T05:37:45.504Z,13.55
2019-05-23T05:40:14.245Z,11.68
2019-05-23T05:42:43.361Z,11.28
2019-05-23T05:45:14.564Z,13.15
2019-05-23T05:47:45.635Z,12.43
2019-05-23T05:50:15.390Z,13.25
2019-05-23T05:52:44.837Z,14.80
2019-05-23T05:55:14.200Z,15.68
2019-05-23T05:57:43.148Z,14.05
2019-05-23T06:00:33.514Z,14.05
2019-05-23T06:03:04.923Z,15.60
2019-05-23T06:05:40.524Z,13.32
2019-05-23T06:08:09.784Z,13.62
2019-05-23T06:10:39.058Z,12.82
2019-05-23T06:13:07.706Z,10.95
2019-05-23T06:15:36.214Z,11.93
2019-05-23T06:18:05.152Z,12.95
2019-05-23T06:20:34.218Z,14.03
2019-05-23T06:23:03.091Z,15.53
2019-05-23T06:25:31.867Z,12.35
2019-05-23T06:28:01.618Z,11.93
2019-05-23T06:30:33.281Z,11.83
2019-05-23T06:33:04.308Z,12.00
2019-05-23T06:35:33.713Z,10.82
2019-05-23T06:38:05.672Z,11.40
2019-05-23T06:40:35.284Z,11.03
2019-05-23T06:43:04.243Z,10.48
2019-05-23T06:45:33.401Z,9.63
2019-05-23T06:48:04.515Z,9.65
2019-05-23T06:50:33.720Z,9.98
2019-05-23T06:53:02.875Z,9.35
2019-05-23T06:55:31.948Z,9.28
2019-05-23T06:58:01.562Z,9.83
2019-05-23T07:00:31.350Z,9.43
2019-05-23T07:03:00.142Z,8.75
2019-05-23T07:05:35.224Z,8.90
2019-05-23T07:08:06.118Z,8.00
2019-05-23T07:10:34.774Z,8.50
2019-05-23T07:13:04.050Z,9.65
2019-05-23T07:15:32.346Z,8.60
2019-05-23T07:18:01.787Z,9.10
2019-05-23T07:20:30.842Z,9.38
2019-05-23T07:22:59.856Z,7.62
2019-05-23T07:25:30.585Z,7.90
2019-05-23T07:27:59.805Z,7.72
2019-05-23T07:30:28.337Z,8.58
2019-05-23T07:32:57.458Z,8.05
2019-05-23T07:35:26.057Z,7.95
2019-05-23T07:37:54.914Z,8.30
2019-05-23T07:40:26.173Z,8.93
2019-05-23T07:42:55.350Z,8.85
2019-05-23T07:45:29.840Z,8.15
2019-05-23T07:47:59.405Z,8.08
2019-05-23T07:50:31.043Z,8.00
2019-05-23T07:52:59.899Z,7.07
2019-05-23T07:55:35.934Z,8.95
2019-05-23T07:58:05.320Z,8.45
2019-05-23T08:00:37.702Z,7.35
2019-05-23T08:03:08.854Z,8.18
2019-05-23T08:05:38.147Z,7.50
2019-05-23T08:08:06.917Z,7.53
2019-05-23T08:10:36.178Z,6.47
2019-05-23T08:13:04.758Z,7.20
2019-05-23T08:15:33.845Z,6.37
2019-05-23T08:18:02.680Z,7.62
2019-05-23T08:20:31.577Z,7.50
2019-05-23T08:23:02.472Z,7.95
2019-05-23T08:25:31.454Z,8.10
2019-05-23T08:28:02.200Z,6.90
2019-05-23T08:30:31.683Z,7.40
2019-05-23T08:33:02.914Z,6.87
2019-05-23T08:35:32.252Z,7.25
2019-05-23T08:38:02.110Z,7.90
2019-05-23T08:40:32.749Z,8.08
2019-05-23T08:45:32.874Z,9.55
2019-05-23T08:48:03.243Z,11.30
2019-05-23T08:50:34.226Z,10.10
2019-05-23T08:53:02.936Z,9.93
2019-05-23T08:55:32.508Z,10.05
2019-05-23T08:58:04.271Z,8.37
2019-05-23T09:00:34.683Z,7.50
2019-05-23T09:03:04.822Z,8.45
2019-05-23T09:05:36.197Z,8.65
2019-05-23T09:08:05.985Z,9.20
2019-05-23T09:10:34.930Z,8.85
2019-05-23T09:13:03.924Z,9.65
2019-05-23T09:15:32.436Z,12.93
2019-05-23T09:18:01.271Z,13.30
2019-05-23T09:20:30.842Z,15.50
2019-05-23T09:22:59.344Z,13.93
2019-05-23T09:25:27.743Z,11.78
2019-05-23T09:27:57.677Z,12.10
2019-05-23T09:30:27.672Z,12.78
2019-05-23T09:32:56.309Z,14.63
2019-05-23T09:35:25.188Z,14.47
2019-05-23T09:37:53.891Z,14.20
2019-05-23T09:40:23.379Z,13.35
2019-05-23T09:42:52.143Z,11.90
2019-05-23T09:45:20.889Z,12.93
2019-05-23T09:47:51.165Z,11.83
2019-05-23T09:50:22.603Z,11.20
2019-05-23T09:52:53.356Z,9.83
2019-05-23T09:55:22.731Z,9.60
2019-05-23T09:57:51.797Z,9.78
2019-05-23T10:00:23.096Z,9.38
2019-05-23T10:02:51.708Z,8.08
2019-05-23T10:05:39.989Z,8.00
2019-05-23T10:07:51.672Z,9.20
2019-05-23T10:10:20.822Z,7.95
2019-05-23T10:12:49.468Z,7.03
2019-05-23T10:15:31.725Z,6.90
2019-05-23T10:18:01.121Z,5.95
2019-05-23T10:20:34.268Z,6.37
2019-05-23T10:23:04.092Z,6.42
2019-05-23T10:25:32.806Z,5.57
2019-05-23T10:28:02.783Z,6.00
2019-05-23T10:30:31.617Z,7.50
2019-05-23T10:33:00.382Z,8.38
2019-05-23T10:35:31.122Z,9.88
2019-05-23T10:37:59.861Z,9.45
2019-05-23T10:40:29.238Z,5.83
2019-05-23T10:42:57.804Z,6.50
2019-05-23T10:45:27.702Z,4.67
2019-05-23T10:47:56.744Z,5.53
2019-05-23T10:50:25.418Z,8.03
2019-05-23T10:55:24.559Z,9.55
2019-05-23T10:57:53.033Z,10.40
2019-05-23T11:00:24.922Z,14.90
2019-05-23T11:02:53.577Z,16.55
2019-05-23T11:05:23.449Z,17.77
2019-05-23T11:07:52.938Z,18.23
2019-05-23T11:10:22.578Z,20.68
2019-05-23T11:15:20.891Z,19.60
2019-05-23T11:17:53.508Z,17.32
2019-05-23T11:20:20.498Z,18.30
2019-05-23T11:22:49.259Z,17.50
2019-05-23T11:25:19.466Z,17.25
2019-05-23T11:27:48.381Z,17.60
2019-05-23T11:30:26.309Z,16.82
2019-05-23T11:32:54.860Z,17.98
2019-05-23T11:35:23.810Z,17.00
2019-05-23T11:37:53.894Z,17.10
2019-05-23T11:40:22.527Z,17.27
2019-05-23T11:42:52.782Z,19.32
2019-05-23T11:45:24.362Z,24.30
2019-05-23T11:47:52.956Z,22.77
2019-05-23T11:50:21.746Z,25.77
2019-05-23T11:52:51.202Z,23.00
2019-05-23T11:55:22.219Z,23.70
2019-05-23T11:57:51.338Z,16.27
2019-05-23T12:00:46.695Z,9.55
2019-05-23T12:03:15.911Z,9.98
2019-05-23T12:05:44.416Z,11.15
2019-05-23T12:08:13.038Z,10.43
2019-05-23T12:10:41.760Z,12.95
2019-05-23T12:13:10.756Z,13.70
2019-05-23T12:15:41.643Z,13.13
2019-05-23T12:18:10.603Z,13.13
2019-05-23T12:20:39.458Z,16.05
2019-05-23T12:23:10.988Z,15.00
2019-05-23T12:28:07.222Z,14.63
2019-05-23T12:30:35.903Z,16.42
2019-05-23T12:33:04.884Z,16.60
2019-05-23T12:35:33.456Z,16.07
2019-05-23T12:38:05.084Z,16.80
2019-05-23T12:40:34.101Z,19.75
2019-05-23T12:43:03.027Z,21.10
2019-05-23T12:45:32.350Z,20.70
2019-05-23T12:48:09.083Z,19.70
2019-05-23T12:50:40.554Z,20.72
2019-05-23T12:53:11.540Z,21.10
2019-05-23T12:55:42.039Z,21.77
2019-05-23T12:58:11.179Z,22.95
2019-05-23T13:00:53.921Z,25.27
2019-05-23T13:03:23.609Z,25.92
2019-05-23T13:05:52.015Z,29.70
2019-05-23T13:08:21.000Z,28.67
2019-05-23T13:10:49.865Z,29.80
2019-05-23T13:13:18.233Z,29.80
2019-05-23T13:15:46.757Z,29.60
2019-05-23T13:18:16.197Z,29.95
2019-05-23T13:20:44.640Z,28.70
2019-05-23T13:23:20.280Z,29.50
2019-05-23T13:25:44.117Z,32.88
2019-05-23T13:28:13.467Z,34.80
2019-05-23T13:30:42.554Z,31.97
2019-05-23T13:33:11.497Z,32.48
2019-05-23T13:35:40.335Z,33.80
2019-05-23T13:38:10.466Z,33.85
2019-05-23T13:40:39.286Z,33.13
2019-05-23T13:43:09.108Z,34.38
2019-05-23T13:45:38.316Z,35.08
2019-05-23T13:48:06.822Z,36.48
2019-05-23T13:50:35.378Z,36.42
2019-05-23T13:53:05.854Z,32.58
2019-05-23T13:55:34.769Z,36.63
2019-05-23T13:58:05.380Z,38.50
2019-05-23T14:00:34.860Z,33.38
2019-05-23T14:03:04.307Z,35.15
2019-05-23T14:05:33.318Z,44.03
2019-05-23T14:08:12.507Z,80.60
2019-05-23T14:10:34.485Z,76.25
2019-05-23T14:13:03.069Z,60.70
2019-05-23T14:15:37.943Z,57.67
2019-05-23T14:18:06.886Z,91.02
2019-05-23T14:20:35.714Z,96.92
2019-05-23T14:23:13.891Z,94.28
2019-05-23T14:25:44.354Z,87.00
2019-05-23T14:28:13.049Z,48.68
2019-05-23T14:30:58.634Z,40.65
2019-05-23T14:33:53.162Z,37.65
2019-05-23T14:36:34.714Z,37.50
2019-05-23T14:39:09.118Z,36.63
2019-05-23T14:41:48.407Z,38.78
2019-05-23T14:44:17.344Z,36.40
2019-05-23T14:47:05.293Z,35.15
2019-05-23T14:49:38.766Z,37.35
2019-05-23T14:52:16.065Z,35.05
2019-05-23T14:54:48.389Z,33.75
2019-05-23T14:57:17.590Z,35.60
2019-05-23T14:59:48.705Z,33.42
2019-05-23T15:02:19.869Z,33.73
2019-05-23T15:07:17.655Z,33.63
2019-05-23T15:09:47.030Z,32.28
2019-05-23T15:12:16.884Z,32.88
2019-05-23T15:14:46.509Z,32.25
2019-05-23T15:17:15.786Z,30.25
2019-05-23T15:19:45.996Z,29.07
2019-05-23T15:22:14.580Z,29.35
2019-05-23T15:24:44.088Z,30.17
2019-05-23T15:27:12.558Z,27.77
2019-05-23T15:29:42.222Z,28.10
2019-05-23T15:32:10.835Z,27.70
2019-05-23T15:34:39.573Z,27.55
2019-05-23T15:37:08.983Z,27.48
2019-05-23T15:39:39.661Z,27.55
2019-05-23T15:42:09.352Z,29.23
2019-05-23T15:44:37.749Z,27.87
2019-05-23T15:47:07.212Z,25.77
2019-05-23T15:49:37.572Z,26.70
2019-05-23T15:52:24.513Z,26.35
2019-05-23T15:55:09.054Z,29.65
2019-05-23T15:57:45.383Z,28.15
2019-05-23T16:00:23.134Z,28.30
2019-05-23T16:03:14.733Z,30.10
2019-05-23T16:05:43.390Z,30.45
2019-05-23T16:08:12.197Z,29.65
2019-05-23T16:10:40.918Z,30.97
2019-05-23T16:13:09.825Z,30.30
2019-05-23T16:15:39.046Z,30.62
2019-05-23T16:18:08.102Z,30.90
2019-05-23T16:20:37.105Z,29.15
2019-05-23T16:23:06.158Z,29.05
2019-05-23T16:25:35.240Z,30.45
2019-05-23T16:28:04.156Z,29.87
2019-05-23T16:30:34.006Z,29.05
2019-05-23T16:33:02.690Z,32.30
2019-05-23T16:35:32.090Z,30.57
2019-05-23T16:38:01.826Z,28.12
2019-05-23T16:40:32.235Z,28.05
2019-05-23T16:43:00.731Z,31.40
2019-05-23T16:45:31.180Z,30.48
2019-05-23T16:47:59.640Z,31.33
2019-05-23T16:50:28.669Z,30.10
2019-05-23T16:52:57.337Z,30.37
2019-05-23T16:55:54.698Z,28.87
2019-05-23T16:58:48.856Z,31.62
2019-05-23T17:01:47.083Z,32.48
2019-05-23T17:04:21.961Z,32.75
2019-05-23T17:07:09.608Z,30.45
2019-05-23T17:10:07.769Z,32.38
2019-05-23T17:12:46.772Z,32.10
2019-05-23T17:15:31.919Z,33.10
2019-05-23T17:18:25.821Z,31.00
2019-05-23T17:21:16.298Z,33.02
2019-05-23T17:24:07.201Z,32.45
2019-05-23T17:26:59.373Z,32.17
2019-05-23T17:29:45.847Z,33.45
2019-05-23T17:32:19.134Z,33.38
2019-05-23T17:34:47.607Z,33.78
2019-05-23T17:37:16.749Z,34.78
2019-05-23T17:39:46.077Z,34.48
2019-05-23T17:42:15.239Z,33.88
2019-05-23T17:44:43.860Z,32.20
2019-05-23T17:47:13.670Z,31.15
2019-05-23T17:49:42.865Z,28.50
2019-05-23T17:52:12.039Z,29.65
2019-05-23T17:54:40.820Z,30.05
2019-05-23T17:57:09.994Z,31.77
2019-05-23T17:59:38.828Z,31.50
2019-05-23T18:04:39.465Z,28.52
2019-05-23T18:07:08.906Z,28.55
2019-05-23T18:09:37.716Z,29.18
2019-05-23T18:12:07.706Z,26.60
2019-05-23T18:14:36.737Z,27.73
2019-05-23T18:17:07.137Z,29.52
2019-05-23T18:19:36.064Z,27.15
2019-05-23T18:22:07.848Z,30.68
2019-05-23T18:24:36.934Z,27.70
2019-05-23T18:27:07.505Z,27.90
2019-05-23T18:32:09.389Z,29.67
2019-05-23T18:34:38.978Z,28.90
2019-05-23T18:37:08.904Z,31.17
2019-05-23T18:39:38.644Z,31.50
2019-05-23T18:42:07.548Z,33.43
2019-05-23T18:44:38.345Z,31.20
2019-05-23T18:47:12.209Z,32.08
2019-05-23T18:49:41.308Z,31.75
2019-05-23T18:52:10.199Z,32.50
2019-05-23T18:54:38.586Z,34.53
2019-05-23T18:57:07.384Z,32.75
2019-05-23T18:59:35.932Z,32.95
2019-05-23T19:02:05.846Z,35.28
2019-05-23T19:04:36.825Z,33.60
2019-05-23T19:07:05.706Z,34.85
2019-05-23T19:09:34.284Z,34.92
2019-05-23T19:12:06.179Z,34.58
2019-05-23T19:14:34.839Z,34.75
2019-05-23T19:17:05.685Z,35.35
2019-05-23T19:19:34.123Z,34.15
2019-05-23T19:22:03.340Z,35.08
2019-05-23T19:24:33.921Z,33.60
2019-05-23T19:27:04.813Z,37.58
2019-05-23T19:29:33.865Z,35.80
2019-05-23T19:32:03.697Z,36.15
2019-05-23T19:34:32.974Z,35.28
2019-05-23T19:37:04.877Z,35.98
2019-05-23T19:39:36.518Z,35.08
2019-05-23T19:42:05.534Z,34.80
2019-05-23T19:44:34.544Z,34.13
2019-05-23T19:47:05.020Z,34.73
2019-05-23T19:49:33.650Z,33.45
2019-05-23T19:52:02.630Z,34.67
2019-05-23T19:54:32.482Z,36.42
2019-05-23T19:57:01.602Z,34.88
2019-05-23T19:59:30.623Z,34.53
2019-05-23T20:02:18.865Z,35.17
2019-05-23T20:05:01.288Z,34.35
2019-05-23T20:07:31.185Z,33.42
2019-05-23T20:10:01.009Z,32.67
2019-05-23T20:12:31.194Z,32.48
2019-05-23T20:14:59.939Z,32.33
2019-05-23T20:17:30.147Z,31.93
2019-05-23T20:19:58.854Z,32.55
2019-05-23T20:22:27.927Z,32.17
2019-05-23T20:24:57.102Z,32.15
2019-05-23T20:27:26.031Z,32.38
2019-05-23T20:29:54.531Z,32.40
2019-05-23T20:32:23.844Z,30.75
2019-05-23T20:34:53.362Z,31.42
2019-05-23T20:37:21.967Z,30.27
2019-05-23T20:39:51.132Z,30.50
2019-05-23T20:42:20.080Z,30.02
2019-05-23T20:44:48.788Z,29.07
2019-05-23T20:47:19.659Z,27.27
2019-05-23T20:49:49.003Z,28.47
2019-05-23T20:52:18.152Z,29.42
2019-05-23T20:54:46.666Z,26.37
2019-05-23T20:57:15.745Z,25.15
2019-05-23T20:59:44.445Z,22.85
2019-05-23T21:02:13.085Z,23.07
2019-05-23T21:04:41.944Z,23.30
2019-05-23T21:07:12.378Z,21.40
2019-05-23T21:09:41.193Z,22.42
2019-05-23T21:12:09.848Z,22.50
2019-05-23T21:14:39.253Z,21.25
2019-05-23T21:17:07.660Z,21.30
2019-05-23T21:19:36.471Z,20.57
2019-05-23T21:22:04.938Z,22.20
2019-05-23T21:24:33.617Z,21.00
2019-05-23T21:27:02.240Z,21.12
2019-05-23T21:29:30.975Z,21.52
2019-05-23T21:31:59.603Z,19.77
2019-05-23T21:34:28.366Z,23.07
2019-05-23T21:36:56.662Z,20.68
2019-05-23T21:39:25.747Z,21.02
2019-05-23T21:41:54.462Z,22.58
2019-05-23T21:44:23.395Z,21.87
2019-05-23T21:46:52.104Z,22.98
2019-05-23T21:49:21.365Z,22.27
2019-05-23T21:51:51.882Z,21.50
2019-05-23T21:56:48.669Z,20.15
2019-05-23T21:59:17.391Z,20.72
2019-05-23T22:02:02.239Z,18.87
2019-05-23T22:04:45.744Z,20.43
2019-05-23T22:07:16.222Z,19.55
2019-05-23T22:09:44.978Z,19.92
2019-05-23T22:12:14.242Z,19.62
2019-05-23T22:14:43.674Z,18.82
2019-05-23T22:17:12.438Z,19.87
2019-05-23T22:19:41.610Z,18.17
2019-05-23T22:22:10.251Z,19.37
2019-05-23T22:24:38.936Z,15.88
2019-05-23T22:27:09.289Z,16.20
2019-05-23T22:29:38.115Z,17.15
2019-05-23T22:32:09.019Z,16.75
2019-05-23T22:35:02.559Z,18.32
2019-05-23T22:37:31.725Z,17.40
2019-05-23T22:40:02.098Z,17.25
2019-05-23T22:42:30.726Z,18.65
2019-05-23T22:44:59.476Z,17.62
2019-05-23T22:47:28.528Z,16.40
2019-05-23T22:49:57.511Z,15.72
2019-05-23T22:52:26.187Z,16.42
2019-05-23T22:54:54.848Z,15.83
2019-05-23T22:57:23.506Z,17.32
2019-05-23T22:59:52.206Z,17.87
2019-05-23T23:02:21.235Z,16.10
2019-05-23T23:04:49.602Z,16.52
2019-05-23T23:07:20.440Z,17.02
2019-05-23T23:09:49.792Z,15.40
2019-05-23T23:12:19.003Z,16.55
2019-05-23T23:14:47.700Z,16.97
2019-05-23T23:17:18.212Z,16.00
2019-05-23T23:19:46.637Z,14.78
2019-05-23T23:22:15.482Z,15.65
2019-05-23T23:24:45.013Z,16.23
2019-05-23T23:27:13.610Z,14.75
2019-05-23T23:29:42.421Z,15.05
2019-05-23T23:32:11.295Z,14.03
2019-05-23T23:34:39.933Z,15.63
2019-05-23T23:37:08.429Z,15.45
2019-05-23T23:39:37.316Z,14.00
2019-05-23T23:42:06.765Z,12.37
2019-05-23T23:44:34.891Z,13.43
2019-05-23T23:47:23.123Z,11.43
2019-05-23T23:50:15.268Z,12.30
2019-05-23T23:53:03.131Z,10.28
2019-05-23T23:55:49.856Z,10.15
2019-05-23T23:58:18.678Z,9.80
